Time;durP1;ratioP1;P1;durP2;ratioP2;P2;SDS_P1;SDS_P2;PMS_P1;PMS_P2;Temp;Humidity;BMP_temperature;BMP_pressure;BME280_temperature;BME280_humidity;BME280_pressure;Samples;Min_cycle;Max_cycle;Signal;HPM_P1;HPM_P2
2021/11/08 00:01:36;;;;;;;9.57;6.63;;;9.60;99.90;;;;;;5072466;28;20542;-74
2021/11/08 00:04:04;;;;;;;8.75;6.20;;;9.60;99.90;;;;;;5072117;28;20230;-73
2021/11/08 00:06:31;;;;;;;10.32;6.03;;;9.60;99.90;;;;;;5072573;28;20588;-73
2021/11/08 00:08:58;;;;;;;8.60;6.45;;;9.70;99.90;;;;;;5072495;28;20199;-73
2021/11/08 00:11:25;;;;;;;9.02;6.45;;;9.60;99.90;;;;;;5072687;28;20203;-74
2021/11/08 00:13:53;;;;;;;7.85;6.40;;;9.60;99.90;;;;;;5071954;28;20739;-73
2021/11/08 00:16:29;;;;;;;8.98;6.82;;;9.50;99.90;;;;;;5072270;28;20723;-73
2021/11/08 00:19:10;;;;;;;13.45;7.03;;;9.50;99.90;;;;;;5072375;28;20202;-74
2021/11/08 00:21:43;;;;;;;9.45;7.05;;;9.50;99.90;;;;;;5072280;28;20203;-73
2021/11/08 00:24:12;;;;;;;9.93;7.28;;;9.60;99.90;;;;;;5071966;28;20596;-73
2021/11/08 00:26:39;;;;;;;10.80;7.40;;;9.60;99.90;;;;;;5072398;28;20219;-73
2021/11/08 00:29:06;;;;;;;10.48;6.55;;;9.60;99.90;;;;;;5072414;28;20199;-74
2021/11/08 00:31:33;;;;;;;9.20;6.80;;;9.60;99.90;;;;;;5072104;28;20722;-74
2021/11/08 00:34:01;;;;;;;8.90;6.97;;;9.60;99.90;;;;;;5071668;28;20250;-73
2021/11/08 00:36:28;;;;;;;12.23;7.20;;;9.60;99.90;;;;;;5072302;28;20202;-74
2021/11/08 00:38:55;;;;;;;10.50;6.80;;;9.50;99.90;;;;;;5071903;28;20207;-74
2021/11/08 00:41:22;;;;;;;11.50;6.80;;;9.60;99.90;;;;;;5072161;28;20203;-74
2021/11/08 00:43:49;;;;;;;8.30;7.38;;;9.50;99.90;;;;;;5071857;28;20720;-74
2021/11/08 00:46:16;;;;;;;13.38;6.97;;;9.30;99.90;;;;;;5071922;28;20293;-74
2021/11/08 00:48:44;;;;;;;12.63;6.85;;;9.30;99.90;;;;;;5072016;28;20640;-74
2021/11/08 00:51:14;;;;;;;7.93;6.50;;;9.40;99.90;;;;;;5071860;28;20278;-73
2021/11/08 00:53:41;;;;;;;11.40;7.50;;;9.40;99.90;;;;;;5071929;28;20227;-74
2021/11/08 00:56:12;;;;;;;10.60;7.45;;;9.30;99.90;;;;;;5071792;28;20245;-74
2021/11/08 00:58:41;;;;;;;10.68;7.20;;;9.30;99.90;;;;;;5071904;28;20206;-74
2021/11/08 01:01:11;;;;;;;11.07;8.05;;;9.40;99.90;;;;;;5071929;28;20199;-73
2021/11/08 01:03:42;;;;;;;14.32;7.50;;;9.20;99.90;;;;;;5071639;28;20292;-74
2021/11/08 01:06:10;;;;;;;9.88;6.78;;;9.20;99.90;;;;;;5071839;28;20203;-74
2021/11/08 01:08:40;;;;;;;11.55;6.88;;;9.20;99.90;;;;;;5071936;28;20242;-74
2021/11/08 01:11:07;;;;;;;9.05;6.43;;;9.10;99.90;;;;;;5073175;28;20211;-73
2021/11/08 01:13:34;;;;;;;10.25;7.47;;;9.10;99.90;;;;;;5074339;28;20881;-73
2021/11/08 01:16:01;;;;;;;9.60;7.63;;;9.00;99.90;;;;;;5074226;28;20213;-74
2021/11/08 01:18:28;;;;;;;8.73;6.88;;;9.00;99.90;;;;;;5074422;28;20290;-73
2021/11/08 01:20:55;;;;;;;9.63;6.38;;;9.00;99.90;;;;;;5075551;28;20566;-74
2021/11/08 01:23:24;;;;;;;10.18;7.20;;;9.00;99.90;;;;;;5076127;28;20218;-73
2021/11/08 01:25:58;;;;;;;10.30;7.10;;;9.00;99.90;;;;;;5076448;28;20207;-73
2021/11/08 01:28:32;;;;;;;16.88;7.75;;;8.80;99.90;;;;;;5076704;28;20272;-73
2021/11/08 01:30:59;;;;;;;10.05;7.05;;;8.70;99.90;;;;;;5076647;28;20220;-74
2021/11/08 01:33:26;;;;;;;11.70;7.65;;;8.60;99.90;;;;;;5075968;28;20309;-73
2021/11/08 01:36:08;;;;;;;11.43;7.15;;;8.60;99.90;;;;;;5076281;28;20595;-74
2021/11/08 01:38:39;;;;;;;10.90;6.57;;;8.50;99.90;;;;;;5076599;28;20198;-74
2021/11/08 01:41:08;;;;;;;10.05;6.85;;;8.50;99.90;;;;;;5076214;28;20301;-73
2021/11/08 01:43:36;;;;;;;10.32;6.80;;;8.30;99.90;;;;;;5075587;28;20229;-74
2021/11/08 01:46:04;;;;;;;11.45;7.35;;;8.30;99.90;;;;;;5075874;28;20213;-73
2021/11/08 01:48:31;;;;;;;12.80;7.05;;;8.30;99.90;;;;;;5075998;28;20615;-74
2021/11/08 01:50:58;;;;;;;12.13;6.40;;;8.30;99.90;;;;;;5076113;28;20203;-74
2021/11/08 01:53:25;;;;;;;7.65;6.30;;;8.30;99.90;;;;;;5076102;28;20227;-73
2021/11/08 01:55:53;;;;;;;10.20;6.63;;;8.30;99.90;;;;;;5076206;28;20203;-74
2021/11/08 01:58:23;;;;;;;12.63;6.70;;;8.30;99.90;;;;;;5075758;28;20205;-74
2021/11/08 02:00:51;;;;;;;9.73;7.13;;;8.30;99.90;;;;;;5075861;28;20643;-74
2021/11/08 02:03:18;;;;;;;10.50;6.47;;;8.30;99.90;;;;;;5075121;28;20229;-73
2021/11/08 02:05:45;;;;;;;8.85;6.35;;;8.20;99.90;;;;;;5075872;28;20229;-73
2021/11/08 02:08:12;;;;;;;9.02;6.30;;;8.20;99.90;;;;;;5075894;28;20222;-73
2021/11/08 02:10:40;;;;;;;8.52;5.75;;;8.20;99.90;;;;;;5076034;28;20313;-73
2021/11/08 02:13:07;;;;;;;9.98;7.18;;;8.10;99.90;;;;;;5075117;28;20703;-73
2021/11/08 02:15:36;;;;;;;8.77;6.95;;;8.10;99.90;;;;;;5075541;28;20203;-73
2021/11/08 02:18:04;;;;;;;9.80;6.90;;;8.00;99.90;;;;;;5075621;28;20217;-73
2021/11/08 02:20:32;;;;;;;8.45;6.60;;;7.90;99.90;;;;;;5075711;28;20207;-73
2021/11/08 02:23:02;;;;;;;10.15;6.30;;;8.00;99.90;;;;;;5074669;28;20250;-73
2021/11/08 02:25:30;;;;;;;8.98;6.20;;;7.90;99.90;;;;;;5075190;28;20237;-73
2021/11/08 02:27:57;;;;;;;9.68;6.15;;;7.90;99.90;;;;;;5075035;28;20229;-73
2021/11/08 02:30:28;;;;;;;8.93;6.47;;;7.80;99.90;;;;;;5075356;28;20290;-73
2021/11/08 02:32:56;;;;;;;9.65;6.10;;;7.80;99.90;;;;;;5074771;28;20227;-73
2021/11/08 02:35:24;;;;;;;12.55;7.13;;;7.80;99.90;;;;;;5075616;28;20207;-73
2021/11/08 02:37:52;;;;;;;8.30;6.32;;;7.70;99.90;;;;;;5074725;28;20203;-73
2021/11/08 02:40:23;;;;;;;7.32;6.00;;;7.60;99.90;;;;;;5074809;28;20232;-73
2021/11/08 02:42:53;;;;;;;11.00;6.18;;;7.70;99.90;;;;;;5074869;28;20581;-73
2021/11/08 02:45:23;;;;;;;8.60;6.53;;;7.60;99.90;;;;;;5075404;28;20534;-73
2021/11/08 02:47:51;;;;;;;9.15;6.68;;;7.60;99.90;;;;;;5075113;28;20314;-73
2021/11/08 02:50:19;;;;;;;12.15;6.68;;;7.60;99.90;;;;;;5074631;28;20649;-73
2021/11/08 02:52:48;;;;;;;8.90;6.13;;;7.60;99.90;;;;;;5074334;28;20238;-73
2021/11/08 02:55:19;;;;;;;10.48;6.13;;;7.60;99.90;;;;;;5074940;28;20203;-73
2021/11/08 02:57:48;;;;;;;8.80;5.90;;;7.50;99.90;;;;;;5074791;28;20645;-73
2021/11/08 03:00:16;;;;;;;8.95;5.85;;;7.50;99.90;;;;;;5074915;28;20207;-74
2021/11/08 03:02:44;;;;;;;7.97;6.22;;;7.50;99.90;;;;;;5074217;28;20284;-73
2021/11/08 03:05:12;;;;;;;9.95;6.35;;;7.50;99.90;;;;;;5074527;28;20214;-73
2021/11/08 03:07:39;;;;;;;9.68;6.60;;;7.40;99.90;;;;;;5074503;28;20229;-73
2021/11/08 03:10:11;;;;;;;12.50;6.60;;;7.40;99.90;;;;;;5074324;28;20234;-74
2021/11/08 03:12:40;;;;;;;13.30;7.18;;;7.30;99.90;;;;;;5073921;28;20315;-73
2021/11/08 03:15:09;;;;;;;9.73;6.45;;;7.30;99.90;;;;;;5074629;28;20234;-73
2021/11/08 03:17:40;;;;;;;8.68;6.70;;;7.20;99.90;;;;;;5074313;28;20286;-73
2021/11/08 03:20:10;;;;;;;9.50;6.30;;;7.10;99.90;;;;;;5074360;28;20207;-73
2021/11/08 03:22:37;;;;;;;10.32;6.45;;;7.00;99.90;;;;;;5074170;28;20222;-73
2021/11/08 03:25:12;;;;;;;10.40;6.60;;;7.00;99.90;;;;;;5073763;28;20202;-74
2021/11/08 03:27:50;;;;;;;8.52;5.82;;;7.00;99.90;;;;;;5074336;28;20702;-74
2021/11/08 03:30:20;;;;;;;9.13;6.18;;;7.20;99.90;;;;;;5073991;28;20309;-74
2021/11/08 03:32:49;;;;;;;9.30;6.80;;;7.10;99.90;;;;;;5073608;28;20584;-74
2021/11/08 03:35:19;;;;;;;11.07;6.85;;;7.20;99.90;;;;;;5073555;28;20237;-74
2021/11/08 03:37:46;;;;;;;8.82;5.97;;;7.10;99.90;;;;;;5074240;28;20207;-74
2021/11/08 03:40:18;;;;;;;11.90;7.78;;;7.20;99.90;;;;;;5073807;28;20738;-74
2021/11/08 03:42:47;;;;;;;13.18;6.60;;;7.20;99.90;;;;;;5073369;28;20245;-74
2021/11/08 03:45:14;;;;;;;8.40;6.30;;;7.10;99.90;;;;;;5074123;28;20210;-74
2021/11/08 03:47:42;;;;;;;8.65;5.82;;;7.10;99.90;;;;;;5074012;28;20309;-74
2021/11/08 03:50:10;;;;;;;8.25;6.25;;;7.10;99.90;;;;;;5074169;28;20206;-73
2021/11/08 03:52:39;;;;;;;10.25;6.45;;;7.00;99.90;;;;;;5073415;28;20223;-73
2021/11/08 03:55:10;;;;;;;11.50;6.38;;;7.10;99.90;;;;;;5073348;28;20213;-74
2021/11/08 03:57:37;;;;;;;9.05;5.85;;;7.10;99.90;;;;;;5073665;28;20225;-74
2021/11/08 04:00:06;;;;;;;10.63;6.38;;;7.10;99.90;;;;;;5073560;28;20202;-74
2021/11/08 04:02:33;;;;;;;10.70;7.22;;;7.00;99.90;;;;;;5073687;28;20588;-74
2021/11/08 04:05:01;;;;;;;9.10;6.80;;;7.00;99.90;;;;;;5074318;28;20661;-74
2021/11/08 04:07:29;;;;;;;9.60;6.47;;;7.00;99.90;;;;;;5073479;28;20222;-74
2021/11/08 04:09:56;;;;;;;10.32;6.47;;;7.00;99.90;;;;;;5073719;28;20213;-74
2021/11/08 04:12:24;;;;;;;7.72;5.65;;;7.00;99.90;;;;;;5073390;28;20297;-73
2021/11/08 04:14:51;;;;;;;12.35;6.60;;;7.00;99.90;;;;;;5073773;28;20252;-73
2021/11/08 04:17:21;;;;;;;9.15;6.90;;;7.00;99.90;;;;;;5073981;28;20607;-73
2021/11/08 04:19:48;;;;;;;9.98;6.57;;;6.90;99.90;;;;;;5073857;28;20210;-73
2021/11/08 04:22:16;;;;;;;10.48;6.32;;;6.90;99.90;;;;;;5073300;28;20523;-74
2021/11/08 04:24:43;;;;;;;10.50;6.15;;;6.80;99.90;;;;;;5073208;28;20202;-74
2021/11/08 04:27:10;;;;;;;13.45;7.15;;;6.80;99.90;;;;;;5073676;28;20293;-74
2021/11/08 04:29:38;;;;;;;12.30;6.60;;;6.90;99.90;;;;;;5073676;28;20584;-74
2021/11/08 04:32:05;;;;;;;11.40;6.85;;;7.00;99.90;;;;;;5073057;28;20211;-73
2021/11/08 04:34:42;;;;;;;11.20;6.32;;;6.90;99.90;;;;;;5073287;28;20203;-74
2021/11/08 04:37:25;;;;;;;10.07;7.00;;;6.80;99.90;;;;;;5073457;28;20233;-74
2021/11/08 04:40:04;;;;;;;12.50;7.72;;;6.70;99.90;;;;;;5073755;28;20202;-74
2021/11/08 04:42:35;;;;;;;12.35;7.75;;;6.50;99.90;;;;;;5072879;28;20229;-73
2021/11/08 04:45:30;;;;;;;11.30;7.13;;;6.60;99.90;;;;;;5073294;28;20282;-74
2021/11/08 04:48:16;;;;;;;12.40;7.10;;;6.60;99.90;;;;;;5077238;28;20249;-74
2021/11/08 04:50:48;;;;;;;8.73;6.80;;;6.60;99.90;;;;;;5077427;28;20286;-73
2021/11/08 04:53:28;;;;;;;10.20;6.63;;;6.30;99.90;;;;;;5076733;28;20249;-74
2021/11/08 04:56:14;;;;;;;11.45;7.05;;;6.20;99.90;;;;;;5076881;28;20299;-74
2021/11/08 05:23:58;;;;;;;10.98;7.28;;;6.40;99.90;;;;;;5076361;28;20221;-73
2021/11/08 05:31:54;;;;;;;14.73;9.38;;;6.30;99.90;;;;;;5076060;28;20202;-73
2021/11/08 05:34:20;;;;;;;14.05;8.25;;;6.30;99.90;;;;;;5076417;28;20647;-73
2021/11/08 05:36:48;;;;;;;19.05;9.20;;;6.20;99.90;;;;;;5076500;28;20245;-73
2021/11/08 05:39:16;;;;;;;11.93;7.35;;;6.20;99.90;;;;;;5075976;28;20207;-73
2021/11/08 05:41:45;;;;;;;13.93;7.63;;;6.20;99.90;;;;;;5075780;28;20554;-73
2021/11/08 05:44:12;;;;;;;11.57;6.57;;;6.20;99.90;;;;;;5076371;28;20313;-73
2021/11/08 05:46:39;;;;;;;13.57;7.10;;;6.20;99.90;;;;;;5076168;28;20299;-74
2021/11/08 05:49:06;;;;;;;13.25;8.50;;;6.20;99.90;;;;;;5075673;28;20356;-73
2021/11/08 05:51:33;;;;;;;12.77;7.55;;;6.20;99.90;;;;;;5075713;28;20199;-73
2021/11/08 05:54:00;;;;;;;8.13;6.75;;;6.30;99.90;;;;;;5075969;28;20258;-74
2021/11/08 05:56:31;;;;;;;8.50;6.88;;;6.40;99.90;;;;;;5075409;28;20679;-73
2021/11/08 06:49:03;;;;;;;11.00;6.32;;;6.40;99.90;;;;;;5074829;28;20257;-74
2021/11/08 06:51:30;;;;;;;7.22;6.38;;;6.40;99.90;;;;;;5074974;28;20554;-73
2021/11/08 06:54:01;;;;;;;14.63;7.38;;;6.50;99.90;;;;;;5074483;28;20219;-74
2021/11/08 06:56:31;;;;;;;13.15;7.68;;;6.60;99.90;;;;;;5074736;28;20281;-74
2021/11/08 06:58:59;;;;;;;9.98;7.32;;;6.40;99.90;;;;;;5074572;28;20237;-74
2021/11/08 07:01:28;;;;;;;10.13;6.65;;;6.30;99.90;;;;;;5074402;28;20207;-73
2021/11/08 07:03:55;;;;;;;12.00;7.07;;;6.40;99.90;;;;;;5074083;28;20245;-74
2021/11/08 07:06:22;;;;;;;10.15;7.13;;;6.40;99.90;;;;;;5074818;28;20293;-74
2021/11/08 07:08:49;;;;;;;10.63;8.40;;;6.40;99.90;;;;;;5073503;28;20292;-74
2021/11/08 07:11:16;;;;;;;14.27;8.35;;;6.40;99.90;;;;;;5074028;28;20248;-73
2021/11/08 07:13:44;;;;;;;14.55;8.40;;;6.50;99.90;;;;;;5074159;28;20249;-73
2021/11/08 07:16:11;;;;;;;13.52;8.68;;;6.60;99.90;;;;;;5074503;28;20256;-74
2021/11/08 07:18:40;;;;;;;15.05;8.82;;;6.70;99.90;;;;;;5074536;28;20199;-74
2021/11/08 07:21:07;;;;;;;15.95;9.15;;;6.60;99.90;;;;;;5073977;28;20202;-74
2021/11/08 07:23:34;;;;;;;14.05;8.90;;;6.60;99.90;;;;;;5074617;28;20276;-73
2021/11/08 07:26:01;;;;;;;12.30;9.10;;;6.60;99.90;;;;;;5074216;28;20207;-74
2021/11/08 07:28:28;;;;;;;11.30;8.40;;;6.70;99.90;;;;;;5074214;28;20329;-74
2021/11/08 07:30:54;;;;;;;13.15;7.32;;;6.70;99.90;;;;;;5074344;28;20305;-74
2021/11/08 07:33:21;;;;;;;9.90;7.30;;;6.70;99.90;;;;;;5074136;28;20309;-73
2021/11/08 07:35:50;;;;;;;9.15;7.20;;;6.80;99.90;;;;;;5073686;28;20653;-73
2021/11/08 07:38:17;;;;;;;13.30;8.15;;;6.80;99.90;;;;;;5073835;28;20289;-74
2021/11/08 07:40:43;;;;;;;11.75;7.60;;;6.80;99.90;;;;;;5074028;28;20209;-74
2021/11/08 07:43:10;;;;;;;10.65;7.80;;;6.90;99.90;;;;;;5073404;28;20760;-73
2021/11/08 07:45:37;;;;;;;11.55;8.00;;;6.90;99.90;;;;;;5074142;28;20254;-74
2021/11/08 07:48:05;;;;;;;12.45;8.32;;;6.90;99.90;;;;;;5074039;28;20285;-74
2021/11/08 07:50:31;;;;;;;13.98;8.32;;;7.00;99.90;;;;;;5073795;28;20210;-74
2021/11/08 07:53:00;;;;;;;13.80;8.80;;;7.00;99.90;;;;;;5073406;28;20309;-73
2021/11/08 07:55:27;;;;;;;10.18;8.60;;;7.00;99.90;;;;;;5073941;28;20207;-74
2021/11/08 07:57:54;;;;;;;13.38;8.93;;;7.10;99.90;;;;;;5073940;28;20229;-74
2021/11/08 08:00:20;;;;;;;17.95;11.60;;;6.90;99.90;;;;;;5073981;28;20199;-73
2021/11/08 08:02:49;;;;;;;17.40;11.38;;;6.70;99.90;;;;;;5073060;28;20234;-74
2021/11/08 08:05:17;;;;;;;15.88;11.30;;;6.40;99.90;;;;;;5073800;28;20211;-73
2021/11/08 08:07:44;;;;;;;20.58;13.10;;;6.30;99.90;;;;;;5073745;28;20207;-73
2021/11/08 08:10:12;;;;;;;26.52;12.23;;;6.40;99.90;;;;;;5073523;28;20224;-74
2021/11/08 08:12:39;;;;;;;19.85;12.55;;;6.60;99.90;;;;;;5073180;28;20222;-73
2021/11/08 08:15:07;;;;;;;18.35;11.65;;;6.80;99.90;;;;;;5074165;28;20293;-74
2021/11/08 08:17:36;;;;;;;15.40;11.88;;;6.90;99.90;;;;;;5073568;28;20210;-74
2021/11/08 08:20:06;;;;;;;20.92;11.85;;;6.90;99.90;;;;;;5074965;28;20206;-74
2021/11/08 08:22:33;;;;;;;20.85;11.35;;;7.00;99.90;;;;;;5077453;28;20218;-73
2021/11/08 08:24:59;;;;;;;20.10;12.32;;;7.00;99.90;;;;;;5078137;28;20236;-74
2021/11/08 08:27:28;;;;;;;18.05;11.60;;;7.10;99.90;;;;;;5077937;28;20198;-74
2021/11/08 08:29:55;;;;;;;19.17;11.70;;;7.20;99.90;;;;;;5077398;28;20215;-74
2021/11/08 08:32:22;;;;;;;17.95;12.15;;;7.30;99.90;;;;;;5077325;28;20289;-73
2021/11/08 08:34:50;;;;;;;18.77;11.82;;;7.30;99.90;;;;;;5077364;28;20622;-73
2021/11/08 08:37:17;;;;;;;17.38;11.60;;;7.30;99.90;;;;;;5077827;28;20241;-74
2021/11/08 08:39:44;;;;;;;14.23;9.77;;;7.40;99.90;;;;;;5078638;28;20289;-74
2021/11/08 08:42:11;;;;;;;14.32;9.15;;;7.40;99.90;;;;;;5077624;28;20661;-74
2021/11/08 08:44:39;;;;;;;15.68;10.52;;;7.50;99.90;;;;;;5078155;28;20297;-74
2021/11/08 08:47:06;;;;;;;17.67;11.55;;;7.60;99.90;;;;;;5078040;28;20206;-73
2021/11/08 08:49:33;;;;;;;17.38;11.30;;;7.60;99.90;;;;;;5077773;28;20557;-74
2021/11/08 08:52:00;;;;;;;17.63;12.05;;;7.70;99.90;;;;;;5077630;28;20577;-73
2021/11/08 08:54:27;;;;;;;19.25;12.98;;;7.80;99.90;;;;;;5077665;28;20254;-73
2021/11/08 08:56:54;;;;;;;17.73;12.85;;;7.60;99.90;;;;;;5077395;28;21079;-74
2021/11/08 08:59:22;;;;;;;20.88;13.38;;;7.50;99.90;;;;;;5077394;28;20201;-74
2021/11/08 09:01:53;;;;;;;23.25;15.25;;;7.40;99.90;;;;;;5076583;28;20206;-74
2021/11/08 09:04:20;;;;;;;23.38;15.98;;;7.40;99.90;;;;;;5076867;28;20235;-73
2021/11/08 09:06:47;;;;;;;23.42;15.40;;;7.30;99.90;;;;;;5077135;28;20293;-74
2021/11/08 09:09:14;;;;;;;22.73;16.27;;;7.40;99.90;;;;;;5077630;28;20222;-74
2021/11/08 09:11:41;;;;;;;23.35;14.25;;;7.40;99.90;;;;;;5077031;28;20206;-74
2021/11/08 09:14:08;;;;;;;23.05;14.07;;;7.50;99.90;;;;;;5077683;28;20310;-74
2021/11/08 09:16:35;;;;;;;19.55;14.25;;;7.60;99.90;;;;;;5077297;28;20209;-74
2021/11/08 09:19:04;;;;;;;20.92;14.27;;;7.70;99.90;;;;;;5077062;28;20238;-74
2021/11/08 09:21:32;;;;;;;20.00;13.50;;;7.90;99.90;;;;;;5077170;28;20213;-74
2021/11/08 09:24:01;;;;;;;20.38;14.00;;;8.00;99.90;;;;;;5076483;28;20229;-74
2021/11/08 09:26:31;;;;;;;23.75;15.52;;;8.10;99.90;;;;;;5076468;28;20289;-74
2021/11/08 09:28:58;;;;;;;23.65;16.48;;;8.10;99.90;;;;;;5076518;28;20229;-74
2021/11/08 09:31:27;;;;;;;26.58;16.67;;;8.00;99.90;;;;;;5075424;28;20203;-73
2021/11/08 09:34:02;;;;;;;35.08;18.45;;;8.00;99.90;;;;;;5076555;28;20231;-73
2021/11/08 09:36:31;;;;;;;29.60;17.77;;;8.00;99.90;;;;;;5076734;28;20253;-73
2021/11/08 09:38:59;;;;;;;24.50;15.27;;;7.90;99.90;;;;;;5076687;28;20281;-74
2021/11/08 09:41:29;;;;;;;26.60;15.10;;;7.80;99.90;;;;;;5076619;28;20206;-74
2021/11/08 09:44:00;;;;;;;23.52;15.15;;;7.80;99.90;;;;;;5076471;28;20307;-74
2021/11/08 09:46:27;;;;;;;23.20;14.27;;;7.90;99.90;;;;;;5076455;28;20203;-74
2021/11/08 09:48:54;;;;;;;23.15;13.05;;;8.00;99.90;;;;;;5076326;28;20207;-74
2021/11/08 09:51:21;;;;;;;18.73;12.57;;;8.10;99.90;;;;;;5075802;28;20613;-74
2021/11/08 09:53:49;;;;;;;16.23;10.18;;;8.20;99.90;;;;;;5076161;28;20219;-74
2021/11/08 09:56:16;;;;;;;18.83;10.43;;;8.20;99.90;;;;;;5076094;28;20336;-74
2021/11/08 09:58:43;;;;;;;17.08;10.20;;;8.20;99.90;;;;;;5076073;28;20305;-74
2021/11/08 10:01:14;;;;;;;18.98;11.50;;;8.30;99.90;;;;;;5076009;28;20209;-74
2021/11/08 10:03:41;;;;;;;21.95;10.40;;;8.30;99.90;;;;;;5075500;28;20562;-74
2021/11/08 10:06:08;;;;;;;19.17;10.80;;;8.20;99.90;;;;;;5075798;28;20252;-73
2021/11/08 10:08:39;;;;;;;21.75;11.23;;;8.40;99.90;;;;;;5075657;28;20207;-74
2021/11/08 10:11:10;;;;;;;17.27;10.52;;;8.50;99.90;;;;;;5075414;28;20593;-73
2021/11/08 10:13:38;;;;;;;18.52;12.63;;;8.70;99.90;;;;;;5075498;28;20229;-74
2021/11/08 10:16:07;;;;;;;19.75;11.77;;;8.90;99.90;;;;;;5075291;28;20679;-74
2021/11/08 10:18:35;;;;;;;19.83;11.43;;;9.10;99.90;;;;;;5075546;28;20203;-74
2021/11/08 10:21:09;;;;;;;19.02;11.82;;;9.20;99.90;;;;;;5075225;28;20664;-74
2021/11/08 10:23:37;;;;;;;18.85;11.35;;;9.50;99.90;;;;;;5075066;28;20577;-74
2021/11/08 10:26:11;;;;;;;21.75;12.13;;;9.50;99.90;;;;;;5075077;28;20284;-74
2021/11/08 10:28:38;;;;;;;16.95;10.57;;;9.60;99.90;;;;;;5075227;28;20676;-74
2021/11/08 10:31:09;;;;;;;19.98;10.90;;;9.50;99.90;;;;;;5075027;28;20313;-73
2021/11/08 10:33:38;;;;;;;15.13;11.48;;;9.70;99.90;;;;;;5075524;28;20276;-74
2021/11/08 10:36:10;;;;;;;17.23;10.40;;;9.60;99.90;;;;;;5075336;28;20297;-74
2021/11/08 10:38:40;;;;;;;19.77;10.90;;;9.70;99.90;;;;;;5075459;28;20213;-75
2021/11/08 10:41:11;;;;;;;20.25;9.93;;;9.60;99.90;;;;;;5074693;28;20207;-75
2021/11/08 10:43:40;;;;;;;18.65;8.77;;;9.80;99.90;;;;;;5073749;28;20699;-75
2021/11/08 10:46:11;;;;;;;14.88;8.55;;;9.90;99.90;;;;;;5075065;28;20218;-74
2021/11/08 10:48:41;;;;;;;14.05;8.75;;;10.00;99.90;;;;;;5071558;28;20951;-72
2021/11/08 10:51:10;;;;;;;13.73;9.40;;;10.10;99.90;;;;;;5074795;28;20223;-73
2021/11/08 10:53:47;;;;;;;13.38;9.00;;;10.10;99.90;;;;;;5073455;28;20731;-74
2021/11/08 10:56:21;;;;;;;16.42;10.48;;;10.00;99.90;;;;;;5073660;28;20211;-75
2021/11/08 10:58:48;;;;;;;17.73;9.07;;;9.80;99.90;;;;;;5073525;28;20210;-75
2021/11/08 11:01:29;;;;;;;14.98;9.45;;;9.70;99.90;;;;;;5073138;28;20210;-73
2021/11/08 11:03:58;;;;;;;13.98;10.02;;;9.60;99.90;;;;;;5073049;28;20317;-73
2021/11/08 11:06:38;;;;;;;12.65;8.90;;;9.60;99.90;;;;;;5073680;28;20234;-74
2021/11/08 11:09:11;;;;;;;13.82;9.60;;;9.70;99.90;;;;;;5073093;28;20206;-74
2021/11/08 11:11:39;;;;;;;14.13;8.48;;;10.10;99.90;;;;;;5073507;28;20207;-76
2021/11/08 11:14:06;;;;;;;11.13;8.10;;;10.40;99.90;;;;;;5073257;28;20344;-75
2021/11/08 11:16:36;;;;;;;14.50;7.55;;;10.70;99.90;;;;;;5073333;28;20260;-75
2021/11/08 11:19:05;;;;;;;9.50;7.63;;;10.70;99.90;;;;;;5073361;28;20207;-76
2021/11/08 11:21:32;;;;;;;10.32;7.63;;;10.80;99.90;;;;;;5072534;28;20669;-76
2021/11/08 11:24:03;;;;;;;13.50;8.20;;;10.70;99.90;;;;;;5073134;28;20313;-75
2021/11/08 11:26:35;;;;;;;15.25;8.30;;;10.40;99.90;;;;;;5073218;28;20658;-75
2021/11/08 11:29:05;;;;;;;13.60;7.30;;;10.20;99.90;;;;;;5072972;28;20768;-75
2021/11/08 11:31:37;;;;;;;14.32;7.00;;;10.10;99.90;;;;;;5072537;28;20206;-75
2021/11/08 11:34:16;;;;;;;10.15;7.22;;;10.20;99.90;;;;;;5073456;28;20599;-75
2021/11/08 11:36:44;;;;;;;10.13;6.88;;;10.20;99.90;;;;;;5073214;28;20576;-75
2021/11/08 11:39:13;;;;;;;9.43;6.68;;;10.40;99.90;;;;;;5072765;28;20209;-75
2021/11/08 11:41:43;;;;;;;9.50;6.60;;;10.50;99.90;;;;;;5072947;28;20206;-74
2021/11/08 11:44:14;;;;;;;12.57;6.45;;;10.70;99.90;;;;;;5073176;28;20218;-75
2021/11/08 11:46:44;;;;;;;9.52;6.25;;;10.80;99.90;;;;;;5072972;28;20684;-75
2021/11/08 11:49:12;;;;;;;10.52;6.88;;;10.90;99.90;;;;;;5072939;28;20690;-75
2021/11/08 11:51:43;;;;;;;9.10;6.43;;;10.90;99.90;;;;;;5072584;28;20209;-75
2021/11/08 11:54:11;;;;;;;9.63;7.07;;;10.60;99.90;;;;;;5072737;28;20219;-74
2021/11/08 11:56:41;;;;;;;16.17;7.30;;;10.30;99.90;;;;;;5072905;28;20204;-73
2021/11/08 11:59:11;;;;;;;12.50;6.63;;;10.30;99.90;;;;;;5072902;28;20288;-73
2021/11/08 12:01:39;;;;;;;12.63;6.20;;;10.30;99.90;;;;;;5072233;28;20199;-73
2021/11/08 12:04:07;;;;;;;12.38;6.43;;;10.40;99.90;;;;;;5072109;28;20606;-74
2021/11/08 12:06:37;;;;;;;11.05;6.18;;;10.50;99.90;;;;;;5072547;28;20359;-72
2021/11/08 12:09:08;;;;;;;10.05;5.88;;;10.90;99.90;;;;;;5072683;28;20565;-73
2021/11/08 12:11:39;;;;;;;10.98;6.53;;;11.30;99.90;;;;;;5072109;28;20771;-72
2021/11/08 12:14:16;;;;;;;8.20;5.55;;;11.60;99.90;;;;;;5072335;28;20218;-73
2021/11/08 12:16:58;;;;;;;15.23;6.40;;;11.60;99.90;;;;;;5071811;28;20206;-73
2021/11/08 12:19:28;;;;;;;9.20;5.95;;;11.80;99.90;;;;;;5072224;28;20783;-75
2021/11/08 12:21:56;;;;;;;8.40;5.40;;;12.10;99.90;;;;;;5071898;28;20206;-74
2021/11/08 12:24:28;;;;;;;10.65;5.57;;;12.30;99.90;;;;;;5072048;28;20314;-75
2021/11/08 12:27:05;;;;;;;9.10;5.38;;;12.70;99.90;;;;;;5071734;28;20301;-75
2021/11/08 12:29:33;;;;;;;8.93;4.70;;;12.60;99.90;;;;;;5071670;28;20293;-75
2021/11/08 12:32:09;;;;;;;10.27;5.05;;;12.70;99.90;;;;;;5071903;28;20202;-73
2021/11/08 12:34:41;;;;;;;8.23;4.78;;;12.20;99.90;;;;;;5071952;28;20208;-73
2021/11/08 12:37:09;;;;;;;8.43;5.20;;;12.20;99.90;;;;;;5071786;28;20683;-73
2021/11/08 12:39:36;;;;;;;12.00;4.70;;;12.00;99.90;;;;;;5071749;28;20206;-74
2021/11/08 12:42:08;;;;;;;8.07;4.80;;;11.60;99.90;;;;;;5071524;28;20213;-73
2021/11/08 12:44:39;;;;;;;6.53;4.43;;;11.50;99.90;;;;;;5071732;28;20858;-73
2021/11/08 12:47:08;;;;;;;8.90;5.05;;;11.30;99.90;;;;;;5071668;28;20203;-74
2021/11/08 12:49:41;;;;;;;6.53;4.50;;;11.10;99.90;;;;;;5071779;28;20209;-73
2021/11/08 12:52:12;;;;;;;11.25;5.40;;;10.90;99.90;;;;;;5071541;28;20246;-75
2021/11/08 12:54:48;;;;;;;10.68;4.30;;;11.00;99.90;;;;;;5071925;28;20203;-76
2021/11/08 12:57:17;;;;;;;7.82;4.20;;;10.90;99.90;;;;;;5071254;28;20213;-73
2021/11/08 12:59:48;;;;;;;8.65;5.30;;;11.00;99.90;;;;;;5071538;28;20199;-73
2021/11/08 13:02:26;;;;;;;6.93;4.32;;;11.20;99.90;;;;;;5071402;28;20264;-73
2021/11/08 13:04:55;;;;;;;7.35;4.68;;;11.20;99.90;;;;;;5071431;28;20214;-74
2021/11/08 13:07:24;;;;;;;11.50;4.97;;;11.20;99.90;;;;;;5073147;28;20203;-74
2021/11/08 13:09:53;;;;;;;9.50;4.55;;;11.30;99.90;;;;;;5075178;28;20596;-74
2021/11/08 13:12:23;;;;;;;9.98;4.35;;;11.30;99.90;;;;;;5074760;28;20293;-76
2021/11/08 13:15:04;;;;;;;7.78;4.90;;;11.20;99.90;;;;;;5075192;28;20207;-73
2021/11/08 13:17:31;;;;;;;7.53;4.60;;;11.20;99.90;;;;;;5074961;28;20669;-73
2021/11/08 13:20:05;;;;;;;9.40;4.57;;;11.30;99.90;;;;;;5075100;28;20206;-73
2021/11/08 13:22:35;;;;;;;8.60;4.80;;;11.30;99.90;;;;;;5074982;28;20305;-72
2021/11/08 13:25:09;;;;;;;7.53;4.03;;;11.30;99.90;;;;;;5074901;28;20210;-71
2021/11/08 13:27:37;;;;;;;5.05;3.65;;;11.30;99.90;;;;;;5074730;28;20567;-72
2021/11/08 13:30:09;;;;;;;5.88;3.88;;;11.10;99.90;;;;;;5075102;28;20217;-72
2021/11/08 13:32:38;;;;;;;5.38;3.60;;;11.20;99.90;;;;;;5074514;28;20248;-72
2021/11/08 13:35:11;;;;;;;8.38;4.10;;;11.40;99.90;;;;;;5074662;28;20752;-71
2021/11/08 13:37:40;;;;;;;8.52;4.00;;;11.50;99.90;;;;;;5074583;28;20668;-72
2021/11/08 13:40:16;;;;;;;8.63;4.10;;;11.50;99.90;;;;;;5074535;28;20199;-71
2021/11/08 13:42:43;;;;;;;9.80;5.60;;;11.50;99.90;;;;;;5074590;28;20584;-71
2021/11/08 13:45:12;;;;;;;11.07;6.05;;;11.50;99.90;;;;;;5074810;28;20654;-72
2021/11/08 13:47:40;;;;;;;9.00;6.25;;;11.20;99.90;;;;;;5074380;28;20203;-71
2021/11/08 13:50:12;;;;;;;7.97;4.50;;;11.00;99.90;;;;;;5074534;28;20203;-72
2021/11/08 13:52:41;;;;;;;6.93;4.20;;;10.90;99.90;;;;;;5074138;28;20229;-71
2021/11/08 13:55:10;;;;;;;6.20;3.60;;;10.70;99.90;;;;;;5074775;28;20203;-72
2021/11/08 13:57:40;;;;;;;6.60;3.97;;;10.50;99.90;;;;;;5074413;28;20547;-71
2021/11/08 14:00:10;;;;;;;7.40;4.30;;;10.50;99.90;;;;;;5074365;28;20207;-72
2021/11/08 14:02:38;;;;;;;12.15;3.78;;;10.40;99.90;;;;;;5073634;28;20222;-71
2021/11/08 14:05:07;;;;;;;8.48;4.25;;;10.40;99.90;;;;;;5074269;28;20203;-72
2021/11/08 14:07:34;;;;;;;7.35;3.72;;;10.30;99.90;;;;;;5073805;28;20213;-71
2021/11/08 14:10:01;;;;;;;7.00;3.60;;;10.30;99.90;;;;;;5074141;28;20202;-71
2021/11/08 14:12:31;;;;;;;8.07;3.67;;;10.20;99.90;;;;;;5073897;28;20203;-71
2021/11/08 14:14:58;;;;;;;6.50;4.30;;;10.10;99.90;;;;;;5074136;28;20203;-71
2021/11/08 14:17:27;;;;;;;7.90;4.53;;;10.10;99.90;;;;;;5073386;28;20696;-71